createdAt,value
2022-08-23T00:02:01.011Z,101281.56
2022-08-23T00:04:37.138Z,101283.81
2022-08-23T00:07:08.433Z,101285.31
2022-08-23T00:09:35.637Z,101271.03
2022-08-23T00:12:22.667Z,101279.63
2022-08-23T00:14:57.294Z,101273.56
2022-08-23T00:17:34.642Z,101270.72
2022-08-23T00:20:08.318Z,101275.56
2022-08-23T00:22:36.880Z,101279.00
2022-08-23T00:25:09.975Z,101275.88
2022-08-23T00:27:37.970Z,101279.03
2022-08-23T00:30:22.186Z,101268.88
2022-08-23T00:32:51.701Z,101267.59
2022-08-23T00:35:27.532Z,101272.69
2022-08-23T00:38:32.028Z,101272.13
2022-08-23T00:40:53.241Z,101270.97
2022-08-23T00:43:47.598Z,101272.97
2022-08-23T00:47:23.843Z,101275.59
2022-08-23T00:50:23.849Z,101279.47
2022-08-23T00:53:08.652Z,101279.91
2022-08-23T00:55:37.025Z,101277.16
2022-08-23T00:58:04.471Z,101278.44
2022-08-23T01:00:34.437Z,101276.19
2022-08-23T01:03:07.067Z,101283.94
2022-08-23T01:06:06.599Z,101282.44
2022-08-23T01:08:37.852Z,101278.13
2022-08-23T01:11:18.951Z,101276.19
2022-08-23T01:13:55.210Z,101266.59
2022-08-23T01:16:51.136Z,101275.69
2022-08-23T01:19:48.530Z,101279.97
2022-08-23T01:23:02.703Z,101283.19
2022-08-23T01:25:33.981Z,101292.44
2022-08-23T01:28:01.457Z,101290.75
2022-08-23T01:30:32.658Z,101292.38
2022-08-23T01:33:05.522Z,101293.63
2022-08-23T01:35:42.680Z,101300.56
2022-08-23T01:38:13.179Z,101295.78
2022-08-23T01:40:40.941Z,101298.25
2022-08-23T01:43:13.618Z,101299.56
2022-08-23T01:45:44.123Z,101300.63
2022-08-23T01:48:10.986Z,101314.09
2022-08-23T01:53:14.382Z,101310.66
2022-08-23T01:55:48.458Z,101307.88
2022-08-23T01:58:15.410Z,101297.34
2022-08-23T02:00:45.988Z,101299.03
2022-08-23T02:03:13.497Z,101302.25
2022-08-23T02:05:42.745Z,101301.63
2022-08-23T02:08:28.307Z,101305.81
2022-08-23T02:10:57.456Z,101299.16
2022-08-23T02:13:24.392Z,101306.03
2022-08-23T02:15:55.174Z,101299.84
2022-08-23T02:18:22.570Z,101295.97
2022-08-23T02:20:52.447Z,101300.06
2022-08-23T02:23:23.273Z,101298.25
2022-08-23T02:25:54.189Z,101300.47
2022-08-23T02:28:23.530Z,101293.69
2022-08-23T02:30:54.140Z,101305.09
2022-08-23T02:33:23.554Z,101302.72
2022-08-23T02:35:52.584Z,101303.78
2022-08-23T02:38:19.479Z,101304.59
2022-08-23T02:40:52.937Z,101305.31
2022-08-23T02:43:35.008Z,101310.81
2022-08-23T02:46:06.593Z,101314.13
2022-08-23T02:48:41.454Z,101313.66
2022-08-23T02:51:14.009Z,101314.84
2022-08-23T02:53:43.394Z,101304.91
2022-08-23T02:56:21.286Z,101307.78
2022-08-23T02:58:53.986Z,101305.34
2022-08-23T03:01:37.055Z,101310.84
2022-08-23T03:04:07.469Z,101309.19
2022-08-23T03:06:34.947Z,101308.13
2022-08-23T03:09:05.014Z,101305.56
2022-08-23T03:11:32.205Z,101306.19
2022-08-23T03:14:00.651Z,101301.94
2022-08-23T03:16:27.833Z,101310.38
2022-08-23T03:18:57.291Z,101316.50
2022-08-23T03:21:24.200Z,101316.88
2022-08-23T03:23:51.635Z,101319.00
2022-08-23T03:26:18.634Z,101320.56
2022-08-23T03:28:51.770Z,101319.94
2022-08-23T03:31:22.141Z,101313.75
2022-08-23T03:33:51.450Z,101319.53
2022-08-23T03:36:19.086Z,101325.69
2022-08-23T03:38:58.192Z,101329.06
2022-08-23T03:41:25.564Z,101327.13
2022-08-23T03:43:52.795Z,101323.06
2022-08-23T03:46:25.973Z,101334.75
2022-08-23T03:48:59.422Z,101330.38
2022-08-23T03:51:31.233Z,101328.72
2022-08-23T03:53:59.096Z,101328.69
2022-08-23T03:56:40.280Z,101334.22
2022-08-23T03:59:12.930Z,101345.84
2022-08-23T04:01:39.890Z,101345.84
2022-08-23T04:04:09.316Z,101349.00
2022-08-23T04:06:36.402Z,101354.06
2022-08-23T04:09:07.401Z,101348.59
2022-08-23T04:11:34.386Z,101337.78
2022-08-23T04:14:01.286Z,101343.09
2022-08-23T04:16:33.375Z,101340.97
2022-08-23T04:19:02.556Z,101346.47
2022-08-23T04:21:29.495Z,101342.63
2022-08-23T04:23:56.562Z,101357.44
2022-08-23T04:26:28.377Z,101355.38
2022-08-23T04:28:57.299Z,101354.97
2022-08-23T04:31:26.524Z,101353.72
2022-08-23T04:33:55.602Z,101361.53
2022-08-23T04:36:25.744Z,101360.06
2022-08-23T04:38:55.683Z,101360.91
2022-08-23T04:41:41.035Z,101370.63
2022-08-23T04:44:08.098Z,101371.69
2022-08-23T04:46:37.501Z,101372.72
2022-08-23T04:49:04.373Z,101389.63
2022-08-23T04:51:33.489Z,101376.72
2022-08-23T04:54:02.945Z,101383.72
2022-08-23T04:56:30.529Z,101379.03
2022-08-23T04:58:57.932Z,101373.50
2022-08-23T05:01:25.611Z,101383.22
2022-08-23T05:03:54.509Z,101379.31
2022-08-23T05:06:23.311Z,101384.19
2022-08-23T05:08:50.320Z,101390.53
2022-08-23T05:11:19.067Z,101397.28
2022-08-23T05:13:48.602Z,101388.78
2022-08-23T05:16:16.116Z,101394.69
2022-08-23T05:18:43.240Z,101391.72
2022-08-23T05:21:16.328Z,101396.41
2022-08-23T05:23:43.908Z,101391.56
2022-08-23T05:26:20.630Z,101400.69
2022-08-23T05:28:49.570Z,101400.22
2022-08-23T05:31:26.653Z,101408.28
2022-08-23T05:33:53.968Z,101404.88
2022-08-23T05:36:23.950Z,101406.16
2022-08-23T05:38:53.480Z,101406.78
2022-08-23T05:41:35.195Z,101402.56
2022-08-23T05:44:05.281Z,101403.41
2022-08-23T05:46:36.716Z,101405.31
2022-08-23T05:49:09.564Z,101409.50
2022-08-23T05:51:38.515Z,101416.50
2022-08-23T05:54:08.014Z,101413.03
2022-08-23T05:56:42.601Z,101423.72
2022-08-23T05:59:15.894Z,101426.72
2022-08-23T06:01:43.862Z,101425.28
2022-08-23T06:04:17.406Z,101429.75
2022-08-23T06:06:44.833Z,101432.56
2022-08-23T06:09:15.911Z,101429.41
2022-08-23T06:11:52.972Z,101432.63
2022-08-23T06:14:24.503Z,101434.84
2022-08-23T06:16:55.797Z,101436.44
2022-08-23T06:19:24.120Z,101435.69
2022-08-23T06:21:52.307Z,101430.97
2022-08-23T06:24:24.705Z,101431.53
2022-08-23T06:26:51.688Z,101438.81
2022-08-23T06:29:20.325Z,101429.25
2022-08-23T06:31:50.558Z,101432.31
2022-08-23T06:34:19.615Z,101435.44
2022-08-23T06:36:49.585Z,101435.78
2022-08-23T06:39:22.204Z,101439.97
2022-08-23T06:41:51.712Z,101447.00
2022-08-23T06:44:19.821Z,101447.91
2022-08-23T06:46:48.766Z,101448.84
2022-08-23T06:49:16.507Z,101451.75
2022-08-23T06:51:49.607Z,101452.22
2022-08-23T06:54:26.540Z,101458.09
2022-08-23T06:56:58.335Z,101462.59
2022-08-23T06:59:28.354Z,101453.06
2022-08-23T07:02:07.258Z,101459.41
2022-08-23T07:04:38.561Z,101461.06
2022-08-23T07:07:11.619Z,101454.53
2022-08-23T07:09:40.590Z,101463.78
2022-08-23T07:12:08.094Z,101462.38
2022-08-23T07:14:36.655Z,101460.78
2022-08-23T07:17:06.482Z,101457.00
2022-08-23T07:19:43.912Z,101454.75
2022-08-23T07:22:15.737Z,101455.25
2022-08-23T07:24:43.039Z,101455.75
2022-08-23T07:27:10.035Z,101466.25
2022-08-23T07:29:37.767Z,101467.94
2022-08-23T07:32:08.118Z,101474.56
2022-08-23T07:34:35.589Z,101464.97
2022-08-23T07:37:11.466Z,101467.78
2022-08-23T07:39:45.125Z,101459.66
2022-08-23T07:42:23.019Z,101458.59
2022-08-23T07:44:52.656Z,101469.16
2022-08-23T07:47:20.722Z,101463.75
2022-08-23T07:49:51.035Z,101471.22
2022-08-23T07:52:17.906Z,101473.09
2022-08-23T07:54:48.672Z,101472.97
2022-08-23T07:57:17.647Z,101465.63
2022-08-23T07:59:44.923Z,101465.94
2022-08-23T08:02:15.874Z,101462.06
2022-08-23T08:04:43.154Z,101459.81
2022-08-23T08:07:19.380Z,101469.84
2022-08-23T08:09:49.963Z,101470.69
2022-08-23T08:12:17.640Z,101467.66
2022-08-23T08:14:45.167Z,101478.03
2022-08-23T08:17:14.616Z,101469.13
2022-08-23T08:19:43.788Z,101465.88
2022-08-23T08:22:10.825Z,101464.78
2022-08-23T08:24:37.758Z,101466.28
2022-08-23T08:27:05.574Z,101462.13
2022-08-23T08:29:33.008Z,101474.56
2022-08-23T08:32:00.264Z,101464.69
2022-08-23T08:34:28.254Z,101468.44
2022-08-23T08:36:58.930Z,101472.06
2022-08-23T08:39:31.550Z,101470.09
2022-08-23T08:42:10.395Z,101470.91
2022-08-23T08:45:07.409Z,101471.97
2022-08-23T08:47:54.523Z,101476.88
2022-08-23T08:50:29.200Z,101480.53
2022-08-23T08:53:09.087Z,101471.75
2022-08-23T08:55:50.286Z,101468.81
2022-08-23T08:58:28.999Z,101472.69
2022-08-23T09:00:56.866Z,101477.53
2022-08-23T09:03:33.099Z,101478.28
2022-08-23T09:06:15.137Z,101482.78
2022-08-23T09:08:57.119Z,101481.34
2022-08-23T09:11:30.270Z,101489.31
2022-08-23T09:14:43.732Z,101483.25
2022-08-23T09:17:51.651Z,101492.97
2022-08-23T09:20:23.181Z,101485.91
2022-08-23T09:23:12.252Z,101484.50
2022-08-23T09:25:39.248Z,101489.13
2022-08-23T09:28:07.297Z,101478.16
2022-08-23T09:30:56.604Z,101483.63
2022-08-23T09:33:49.264Z,101491.78
2022-08-23T09:36:25.480Z,101481.72
2022-08-23T09:39:00.019Z,101483.19
2022-08-23T09:41:43.605Z,101476.66
2022-08-23T09:44:32.713Z,101481.13
2022-08-23T09:47:17.250Z,101472.69
2022-08-23T09:49:54.494Z,101465.59
2022-08-23T09:52:27.730Z,101470.66
2022-08-23T09:54:58.949Z,101469.81
2022-08-23T09:57:29.942Z,101469.22
2022-08-23T10:00:23.479Z,101465.19
2022-08-23T10:02:57.853Z,101467.66
2022-08-23T10:05:50.713Z,101463.31
2022-08-23T10:08:35.948Z,101460.72
2022-08-23T10:11:39.080Z,101468.59
2022-08-23T10:14:07.085Z,101457.41
2022-08-23T10:17:17.160Z,101457.69
2022-08-23T10:20:25.305Z,101451.75
2022-08-23T10:23:06.337Z,101452.66
2022-08-23T10:25:47.367Z,101449.31
2022-08-23T10:29:05.217Z,101452.94
2022-08-23T10:31:47.315Z,101449.00
2022-08-23T10:34:30.067Z,101448.38
2022-08-23T10:37:51.689Z,101446.16
2022-08-23T10:40:34.932Z,101443.91
2022-08-23T10:43:36.918Z,101442.88
2022-08-23T10:46:07.515Z,101429.16
2022-08-23T10:48:55.195Z,101430.00
2022-08-23T10:51:31.870Z,101427.78
2022-08-23T10:54:13.229Z,101424.28
2022-08-23T10:56:51.207Z,101424.00
2022-08-23T10:59:26.749Z,101433.19
2022-08-23T11:02:31.569Z,101426.59
2022-08-23T11:05:20.416Z,101424.19
2022-08-23T11:08:06.484Z,101426.84
2022-08-23T11:10:42.020Z,101432.03
2022-08-23T11:13:29.472Z,101437.56
2022-08-23T11:16:23.511Z,101428.06
2022-08-23T11:18:52.897Z,101428.56
2022-08-23T11:21:25.709Z,101426.34
2022-08-23T11:23:58.887Z,101417.34
2022-08-23T11:26:29.777Z,101416.78
2022-08-23T11:29:23.842Z,101414.16
2022-08-23T11:32:20.257Z,101419.78
2022-08-23T11:35:09.071Z,101409.03
2022-08-23T11:38:05.336Z,101416.34
2022-08-23T11:40:55.746Z,101426.38
2022-08-23T11:43:31.497Z,101428.00
2022-08-23T11:46:27.967Z,101421.13
2022-08-23T11:49:25.270Z,101416.34
2022-08-23T11:52:36.949Z,101424.38
2022-08-23T11:55:37.581Z,101419.00
2022-08-23T11:58:23.976Z,101412.56
2022-08-23T12:01:08.371Z,101410.44
2022-08-23T12:04:00.251Z,101405.97
2022-08-23T12:06:51.165Z,101416.50
2022-08-23T12:09:24.556Z,101409.88
2022-08-23T12:11:57.186Z,101415.94
2022-08-23T12:14:47.540Z,101415.25
2022-08-23T12:17:19.248Z,101415.94
2022-08-23T12:19:53.759Z,101406.56
2022-08-23T12:22:29.925Z,101405.19
2022-08-23T12:25:08.557Z,101410.78
2022-08-23T12:27:45.882Z,101413.59
2022-08-23T12:30:25.435Z,101407.34
2022-08-23T12:33:04.738Z,101404.50
2022-08-23T12:36:23.659Z,101408.75
2022-08-23T12:39:11.754Z,101391.13
2022-08-23T12:42:05.759Z,101391.50
2022-08-23T12:44:38.654Z,101385.84
2022-08-23T12:47:21.740Z,101387.31
2022-08-23T12:50:15.105Z,101389.13
2022-08-23T12:52:42.277Z,101392.31
2022-08-23T12:55:19.513Z,101380.75
2022-08-23T12:57:56.533Z,101380.06
2022-08-23T13:00:36.658Z,101379.56
2022-08-23T13:03:04.734Z,101382.19
2022-08-23T13:06:05.567Z,101376.03
2022-08-23T13:08:43.636Z,101387.66
2022-08-23T13:11:13.509Z,101386.97
2022-08-23T13:13:44.237Z,101384.16
2022-08-23T13:16:54.003Z,101375.91
2022-08-23T13:19:34.700Z,101374.41
2022-08-23T13:22:19.996Z,101370.72
2022-08-23T13:28:03.648Z,101369.38
2022-08-23T13:30:59.356Z,101371.59
2022-08-23T13:33:26.371Z,101363.38
2022-08-23T13:36:21.276Z,101359.88
2022-08-23T13:38:49.826Z,101369.91
2022-08-23T13:41:38.682Z,101364.06
2022-08-23T13:44:08.654Z,101368.78
2022-08-23T13:46:45.830Z,101352.25
2022-08-23T13:49:27.207Z,101357.31
2022-08-23T13:52:38.110Z,101355.56
2022-08-23T13:54:50.873Z,101356.75
2022-08-23T13:57:22.920Z,101357.63
2022-08-23T13:59:56.115Z,101369.59
2022-08-23T14:02:29.485Z,101364.50
2022-08-23T14:04:56.420Z,101362.38
2022-08-23T14:07:23.498Z,101350.19
2022-08-23T14:09:54.516Z,101352.09
2022-08-23T14:12:27.785Z,101357.66
2022-08-23T14:14:57.215Z,101370.19
2022-08-23T14:17:24.663Z,101357.94
2022-08-23T14:20:31.980Z,101355.31
2022-08-23T14:22:40.415Z,101348.16
2022-08-23T14:25:08.870Z,101353.75
2022-08-23T14:27:38.869Z,101350.34
2022-08-23T14:30:25.294Z,101344.44
2022-08-23T14:32:58.012Z,101358.59
2022-08-23T14:35:32.547Z,101353.19
2022-08-23T14:38:03.491Z,101350.19
2022-08-23T14:40:35.508Z,101338.53
2022-08-23T14:43:03.950Z,101346.00
2022-08-23T14:45:34.511Z,101336.94
2022-08-23T14:48:01.849Z,101334.69
2022-08-23T14:50:28.874Z,101342.63
2022-08-23T14:52:58.910Z,101333.69
2022-08-23T14:55:28.441Z,101346.63
2022-08-23T14:57:57.825Z,101346.34
2022-08-23T15:00:26.892Z,101335.56
2022-08-23T15:02:56.971Z,101340.53
2022-08-23T15:05:24.253Z,101325.47
2022-08-23T15:07:53.455Z,101322.72
2022-08-23T15:13:21.790Z,101330.03
2022-08-23T15:15:55.174Z,101328.06
2022-08-23T15:18:24.661Z,101344.06
2022-08-23T15:20:52.538Z,101349.28
2022-08-23T15:23:24.287Z,101335.50
2022-08-23T15:25:51.551Z,101329.53
2022-08-23T15:28:23.361Z,101331.69
2022-08-23T15:30:51.513Z,101330.91
2022-08-23T15:33:26.853Z,101323.25
2022-08-23T15:35:58.464Z,101328.47
2022-08-23T15:38:31.226Z,101327.78
2022-08-23T15:41:03.824Z,101327.59
2022-08-23T15:43:34.702Z,101328.09
2022-08-23T15:46:17.258Z,101328.91
2022-08-23T15:49:34.081Z,101333.38
2022-08-23T15:52:03.817Z,101319.56
2022-08-23T15:54:31.337Z,101323.59
2022-08-23T15:57:00.743Z,101318.59
2022-08-23T15:59:28.105Z,101321.56
2022-08-23T16:01:55.011Z,101324.53
2022-08-23T16:04:22.018Z,101325.09
2022-08-23T16:06:48.928Z,101329.53
2022-08-23T16:09:23.181Z,101322.56
2022-08-23T16:11:51.565Z,101326.00
2022-08-23T16:14:18.710Z,101321.97
2022-08-23T16:16:48.532Z,101323.97
2022-08-23T16:19:16.684Z,101319.16
2022-08-23T16:21:44.254Z,101315.03
2022-08-23T16:24:14.042Z,101326.78
2022-08-23T16:26:46.594Z,101313.31
2022-08-23T16:29:19.810Z,101329.81
2022-08-23T16:31:49.036Z,101324.22
2022-08-23T16:34:19.735Z,101326.50
2022-08-23T16:36:52.760Z,101320.41
2022-08-23T16:39:23.697Z,101313.41
2022-08-23T16:41:50.864Z,101320.16
2022-08-23T16:44:18.719Z,101322.66
2022-08-23T16:46:46.990Z,101312.59
2022-08-23T16:49:18.643Z,101320.69
2022-08-23T16:51:47.583Z,101323.78
2022-08-23T16:54:15.887Z,101316.41
2022-08-23T16:56:44.596Z,101328.16
2022-08-23T16:59:13.691Z,101332.03
2022-08-23T17:01:53.989Z,101322.09
2022-08-23T17:04:30.370Z,101329.63
2022-08-23T17:06:59.989Z,101331.03
2022-08-23T17:09:29.648Z,101319.84
2022-08-23T17:11:58.973Z,101333.00
2022-08-23T17:14:32.429Z,101337.19
2022-08-23T17:17:00.339Z,101339.97
2022-08-23T17:19:30.783Z,101337.19
2022-08-23T17:21:58.591Z,101346.69
2022-08-23T17:24:26.980Z,101346.13
2022-08-23T17:26:54.901Z,101339.41
2022-08-23T17:29:22.184Z,101345.75
2022-08-23T17:31:49.963Z,101344.06
2022-08-23T17:34:18.023Z,101343.75
2022-08-23T17:36:53.329Z,101344.41
2022-08-23T17:39:27.517Z,101343.31
2022-08-23T17:41:59.651Z,101351.69
2022-08-23T17:44:27.484Z,101356.69
2022-08-23T17:46:55.356Z,101367.22
2022-08-23T17:49:26.522Z,101369.41
2022-08-23T17:51:53.978Z,101358.81
2022-08-23T17:54:25.919Z,101363.22
2022-08-23T17:56:53.408Z,101360.41
2022-08-23T17:59:26.334Z,101365.47
2022-08-23T18:01:56.128Z,101368.78
2022-08-23T18:04:26.579Z,101366.63
2022-08-23T18:06:56.244Z,101368.28
2022-08-23T18:09:26.095Z,101376.34
2022-08-23T18:11:55.390Z,101374.41
2022-08-23T18:14:27.911Z,101385.75
2022-08-23T18:17:01.147Z,101384.25
2022-08-23T18:19:29.135Z,101388.13
2022-08-23T18:21:58.588Z,101389.59
2022-08-23T18:24:29.751Z,101395.94
2022-08-23T18:27:21.613Z,101393.22
2022-08-23T18:29:51.347Z,101389.53
2022-08-23T18:32:21.232Z,101385.66
2022-08-23T18:34:52.802Z,101395.50
2022-08-23T18:37:23.662Z,101403.28
2022-08-23T18:39:51.914Z,101408.47
2022-08-23T18:42:26.423Z,101407.38
2022-08-23T18:44:54.799Z,101413.97
2022-08-23T18:47:23.009Z,101411.69
2022-08-23T18:49:56.856Z,101419.22
2022-08-23T18:52:24.958Z,101426.38
2022-08-23T18:54:52.825Z,101426.06
2022-08-23T18:57:21.638Z,101424.56
2022-08-23T18:59:53.429Z,101426.13
2022-08-23T19:02:24.353Z,101434.38
2022-08-23T19:04:54.116Z,101435.47
2022-08-23T19:07:22.014Z,101437.69
2022-08-23T19:09:49.107Z,101440.19
2022-08-23T19:12:16.493Z,101443.19
2022-08-23T19:14:50.562Z,101453.59
2022-08-23T19:17:17.533Z,101443.13
2022-08-23T19:19:44.482Z,101457.50
2022-08-23T19:22:12.784Z,101451.84
2022-08-23T19:24:41.205Z,101462.47
2022-08-23T19:27:12.854Z,101456.44
2022-08-23T19:29:46.802Z,101460.00
2022-08-23T19:32:14.987Z,101465.13
2022-08-23T19:34:42.614Z,101469.72
2022-08-23T19:37:10.761Z,101467.88
2022-08-23T19:39:49.333Z,101463.84
2022-08-23T19:42:20.547Z,101466.03
2022-08-23T19:44:48.155Z,101470.06
2022-08-23T19:47:19.871Z,101468.56
2022-08-23T19:49:48.495Z,101472.09
2022-08-23T19:52:15.650Z,101482.22
2022-08-23T19:54:42.541Z,101479.81
2022-08-23T19:57:10.056Z,101489.88
2022-08-23T19:59:39.281Z,101490.84
2022-08-23T20:02:14.052Z,101490.28
2022-08-23T20:04:41.618Z,101481.28
2022-08-23T20:07:09.578Z,101484.50
2022-08-23T20:09:36.638Z,101490.84
2022-08-23T20:12:05.222Z,101492.69
2022-08-23T20:14:33.233Z,101496.22
2022-08-23T20:17:04.343Z,101504.00
2022-08-23T20:19:31.479Z,101499.91
2022-08-23T20:22:19.284Z,101506.88
2022-08-23T20:24:53.063Z,101517.97
2022-08-23T20:27:24.157Z,101504.97
2022-08-23T20:30:00.066Z,101511.25
2022-08-23T20:32:28.301Z,101505.47
2022-08-23T20:34:55.310Z,101512.00
2022-08-23T20:37:22.766Z,101514.53
2022-08-23T20:39:50.171Z,101513.25
2022-08-23T20:42:17.108Z,101500.69
2022-08-23T20:44:44.559Z,101507.19
2022-08-23T20:47:14.769Z,101512.75
2022-08-23T20:49:44.902Z,101514.44
2022-08-23T20:52:12.723Z,101504.19
2022-08-23T20:54:43.307Z,101515.88
2022-08-23T20:57:10.717Z,101511.53
2022-08-23T20:59:44.489Z,101513.94
2022-08-23T21:02:14.754Z,101522.88
2022-08-23T21:04:42.343Z,101520.56
2022-08-23T21:07:09.545Z,101526.44
2022-08-23T21:09:36.626Z,101523.34
2022-08-23T21:12:07.687Z,101531.28
2022-08-23T21:14:36.243Z,101522.97
2022-08-23T21:17:03.207Z,101517.78
2022-08-23T21:19:33.074Z,101519.59
2022-08-23T21:22:00.083Z,101532.13
2022-08-23T21:24:29.998Z,101533.19
2022-08-23T21:26:56.949Z,101528.75
2022-08-23T21:29:23.846Z,101524.84
2022-08-23T21:31:50.794Z,101522.78
2022-08-23T21:34:20.304Z,101522.28
2022-08-23T21:36:47.290Z,101521.97
2022-08-23T21:39:17.182Z,101521.09
2022-08-23T21:41:50.950Z,101513.13
2022-08-23T21:44:22.255Z,101513.84
2022-08-23T21:46:49.462Z,101512.13
2022-08-23T21:49:17.137Z,101521.34
2022-08-23T21:51:49.804Z,101513.31
2022-08-23T21:54:20.030Z,101524.13
2022-08-23T21:56:47.411Z,101513.47
2022-08-23T21:59:18.049Z,101523.50
2022-08-23T22:01:47.694Z,101515.63
2022-08-23T22:04:18.734Z,101521.06
2022-08-23T22:06:49.890Z,101511.63
2022-08-23T22:09:31.090Z,101518.47
2022-08-23T22:12:01.308Z,101512.47
2022-08-23T22:14:32.267Z,101512.59
2022-08-23T22:17:02.379Z,101507.97
2022-08-23T22:19:32.389Z,101505.91
2022-08-23T22:22:02.278Z,101505.19
2022-08-23T22:24:31.784Z,101508.66
2022-08-23T22:26:58.687Z,101504.81
2022-08-23T22:29:25.683Z,101511.88
2022-08-23T22:31:52.850Z,101510.97
2022-08-23T22:34:22.814Z,101519.25
2022-08-23T22:36:52.427Z,101512.03
2022-08-23T22:39:22.904Z,101515.66
2022-08-23T22:41:50.340Z,101516.78
2022-08-23T22:44:17.556Z,101514.97
2022-08-23T22:46:47.093Z,101519.50
2022-08-23T22:49:19.269Z,101522.03
2022-08-23T22:51:46.160Z,101520.03
2022-08-23T22:54:16.047Z,101518.03
2022-08-23T22:56:50.786Z,101516.81
2022-08-23T22:59:25.219Z,101529.31
2022-08-23T23:01:58.999Z,101531.22
2022-08-23T23:04:28.493Z,101522.03
2022-08-23T23:06:56.426Z,101531.09
2022-08-23T23:09:26.487Z,101534.94
2022-08-23T23:11:55.088Z,101533.31
2022-08-23T23:14:22.824Z,101530.63
2022-08-23T23:16:50.570Z,101536.31
2022-08-23T23:19:36.511Z,101535.38
2022-08-23T23:22:04.501Z,101533.56
2022-08-23T23:24:36.934Z,101530.25
2022-08-23T23:27:06.526Z,101535.78
2022-08-23T23:29:34.210Z,101545.22
2022-08-23T23:32:03.715Z,101535.47
2022-08-23T23:34:32.892Z,101541.38
2022-08-23T23:37:05.107Z,101547.78
2022-08-23T23:39:34.695Z,101556.00
2022-08-23T23:42:06.150Z,101553.38
2022-08-23T23:44:35.636Z,101556.69
2022-08-23T23:47:02.603Z,101557.44
2022-08-23T23:49:32.450Z,101556.84
2022-08-23T23:51:59.953Z,101562.59
2022-08-23T23:54:26.941Z,101556.22
2022-08-23T23:56:54.039Z,101556.91
2022-08-23T23:59:24.191Z,101560.28
